sensor_id;sensor_type;location;lat;lon;timestamp;temperature;humidity
12504;DHT22;6316;48.118;-1.690;2023-08-06T00:01:53;16.30;99.90
12504;DHT22;6316;48.118;-1.690;2023-08-06T00:04:19;16.30;99.90
12504;DHT22;6316;48.118;-1.690;2023-08-06T00:06:45;16.40;99.90
12504;DHT22;6316;48.118;-1.690;2023-08-06T00:09:10;16.30;99.90
12504;DHT22;6316;48.118;-1.690;2023-08-06T00:11:36;16.30;99.90
12504;DHT22;6316;48.118;-1.690;2023-08-06T00:14:01;16.30;99.90
12504;DHT22;6316;48.118;-1.690;2023-08-06T00:16:27;16.30;99.90
12504;DHT22;6316;48.118;-1.690;2023-08-06T00:18:53;16.30;99.90
12504;DHT22;6316;48.118;-1.690;2023-08-06T00:21:18;16.30;99.90
12504;DHT22;6316;48.118;-1.690;2023-08-06T00:23:44;16.20;99.90
12504;DHT22;6316;48.118;-1.690;2023-08-06T00:26:10;16.20;99.90
12504;DHT22;6316;48.118;-1.690;2023-08-06T00:28:35;16.20;99.90
12504;DHT22;6316;48.118;-1.690;2023-08-06T00:31:01;16.20;99.90
12504;DHT22;6316;48.118;-1.690;2023-08-06T00:33:26;16.20;99.90
12504;DHT22;6316;48.118;-1.690;2023-08-06T00:35:52;16.20;99.90
12504;DHT22;6316;48.118;-1.690;2023-08-06T00:38:18;16.20;99.90
12504;DHT22;6316;48.118;-1.690;2023-08-06T00:40:43;16.20;99.90
12504;DHT22;6316;48.118;-1.690;2023-08-06T00:43:09;16.20;99.90
12504;DHT22;6316;48.118;-1.690;2023-08-06T00:45:37;16.20;99.90
12504;DHT22;6316;48.118;-1.690;2023-08-06T00:48:04;16.30;99.90
12504;DHT22;6316;48.118;-1.690;2023-08-06T00:50:31;16.20;99.90
12504;DHT22;6316;48.118;-1.690;2023-08-06T00:52:57;16.10;99.90
12504;DHT22;6316;48.118;-1.690;2023-08-06T00:55:23;16.10;99.90
12504;DHT22;6316;48.118;-1.690;2023-08-06T00:57:48;16.10;99.90
12504;DHT22;6316;48.118;-1.690;2023-08-06T01:00:15;16.10;99.90
12504;DHT22;6316;48.118;-1.690;2023-08-06T01:02:41;16.00;99.90
12504;DHT22;6316;48.118;-1.690;2023-08-06T01:05:07;16.10;99.90
12504;DHT22;6316;48.118;-1.690;2023-08-06T01:10:26;16.00;99.90
12504;DHT22;6316;48.118;-1.690;2023-08-06T01:13:11;16.00;99.90
12504;DHT22;6316;48.118;-1.690;2023-08-06T01:15:47;16.00;99.90
12504;DHT22;6316;48.118;-1.690;2023-08-06T01:18:14;16.00;99.90
12504;DHT22;6316;48.118;-1.690;2023-08-06T01:20:40;16.00;99.90
12504;DHT22;6316;48.118;-1.690;2023-08-06T01:23:06;16.10;99.90
12504;DHT22;6316;48.118;-1.690;2023-08-06T01:25:49;16.00;99.90
12504;DHT22;6316;48.118;-1.690;2023-08-06T01:28:47;16.00;99.90
12504;DHT22;6316;48.118;-1.690;2023-08-06T01:31:19;16.00;99.90
12504;DHT22;6316;48.118;-1.690;2023-08-06T01:33:48;16.00;99.90
12504;DHT22;6316;48.118;-1.690;2023-08-06T01:36:19;16.00;99.90
12504;DHT22;6316;48.118;-1.690;2023-08-06T01:38:46;16.00;99.90
12504;DHT22;6316;48.118;-1.690;2023-08-06T01:41:11;15.90;99.90
12504;DHT22;6316;48.118;-1.690;2023-08-06T01:43:37;15.90;99.90
12504;DHT22;6316;48.118;-1.690;2023-08-06T01:46:03;15.90;99.90
12504;DHT22;6316;48.118;-1.690;2023-08-06T01:48:28;15.80;99.90
12504;DHT22;6316;48.118;-1.690;2023-08-06T01:50:54;15.80;99.90
12504;DHT22;6316;48.118;-1.690;2023-08-06T01:53:19;15.80;99.90
12504;DHT22;6316;48.118;-1.690;2023-08-06T01:55:49;15.70;99.90
12504;DHT22;6316;48.118;-1.690;2023-08-06T01:58:15;15.70;99.90
12504;DHT22;6316;48.118;-1.690;2023-08-06T02:00:40;15.70;99.90
12504;DHT22;6316;48.118;-1.690;2023-08-06T02:03:06;15.70;99.90
12504;DHT22;6316;48.118;-1.690;2023-08-06T02:05:32;15.60;99.90
12504;DHT22;6316;48.118;-1.690;2023-08-06T02:07:57;15.60;99.90
12504;DHT22;6316;48.118;-1.690;2023-08-06T02:10:23;15.50;99.90
12504;DHT22;6316;48.118;-1.690;2023-08-06T02:12:49;15.50;99.90
12504;DHT22;6316;48.118;-1.690;2023-08-06T02:15:14;15.50;99.90
12504;DHT22;6316;48.118;-1.690;2023-08-06T02:17:40;15.50;99.90
12504;DHT22;6316;48.118;-1.690;2023-08-06T02:20:06;15.40;99.90
12504;DHT22;6316;48.118;-1.690;2023-08-06T02:22:32;15.40;99.90
12504;DHT22;6316;48.118;-1.690;2023-08-06T02:24:59;15.40;99.90
12504;DHT22;6316;48.118;-1.690;2023-08-06T02:27:24;15.40;99.90
12504;DHT22;6316;48.118;-1.690;2023-08-06T02:29:50;15.30;99.90
12504;DHT22;6316;48.118;-1.690;2023-08-06T02:32:16;15.30;99.90
12504;DHT22;6316;48.118;-1.690;2023-08-06T02:34:41;15.30;99.90
12504;DHT22;6316;48.118;-1.690;2023-08-06T02:37:07;15.20;99.90
12504;DHT22;6316;48.118;-1.690;2023-08-06T02:39:33;15.20;99.90
12504;DHT22;6316;48.118;-1.690;2023-08-06T02:41:59;15.20;99.90
12504;DHT22;6316;48.118;-1.690;2023-08-06T02:44:28;15.10;99.90
12504;DHT22;6316;48.118;-1.690;2023-08-06T02:46:54;15.10;99.90
12504;DHT22;6316;48.118;-1.690;2023-08-06T02:49:19;15.10;99.90
12504;DHT22;6316;48.118;-1.690;2023-08-06T02:51:45;15.10;99.90
12504;DHT22;6316;48.118;-1.690;2023-08-06T02:54:11;15.00;99.90
12504;DHT22;6316;48.118;-1.690;2023-08-06T02:56:36;15.00;99.90
12504;DHT22;6316;48.118;-1.690;2023-08-06T02:59:02;15.00;99.90
12504;DHT22;6316;48.118;-1.690;2023-08-06T03:01:28;15.00;99.90
12504;DHT22;6316;48.118;-1.690;2023-08-06T03:03:54;14.90;99.90
12504;DHT22;6316;48.118;-1.690;2023-08-06T03:06:19;14.90;99.90
12504;DHT22;6316;48.118;-1.690;2023-08-06T03:08:45;14.90;99.90
12504;DHT22;6316;48.118;-1.690;2023-08-06T03:11:11;14.90;99.90
12504;DHT22;6316;48.118;-1.690;2023-08-06T03:13:36;14.80;99.90
12504;DHT22;6316;48.118;-1.690;2023-08-06T03:16:02;14.80;99.90
12504;DHT22;6316;48.118;-1.690;2023-08-06T03:18:28;14.80;99.90
12504;DHT22;6316;48.118;-1.690;2023-08-06T03:20:54;14.80;99.90
12504;DHT22;6316;48.118;-1.690;2023-08-06T03:23:19;14.70;99.90
12504;DHT22;6316;48.118;-1.690;2023-08-06T03:25:45;14.70;99.90
12504;DHT22;6316;48.118;-1.690;2023-08-06T03:28:11;14.70;99.90
12504;DHT22;6316;48.118;-1.690;2023-08-06T03:30:37;14.60;99.90
12504;DHT22;6316;48.118;-1.690;2023-08-06T03:33:03;14.60;99.90
12504;DHT22;6316;48.118;-1.690;2023-08-06T03:35:29;14.60;99.90
12504;DHT22;6316;48.118;-1.690;2023-08-06T03:37:54;14.60;99.90
12504;DHT22;6316;48.118;-1.690;2023-08-06T03:40:20;14.60;99.90
12504;DHT22;6316;48.118;-1.690;2023-08-06T03:42:45;14.50;99.90
12504;DHT22;6316;48.118;-1.690;2023-08-06T03:45:11;14.50;99.90
12504;DHT22;6316;48.118;-1.690;2023-08-06T03:47:37;14.50;99.90
12504;DHT22;6316;48.118;-1.690;2023-08-06T03:50:03;14.50;99.90
12504;DHT22;6316;48.118;-1.690;2023-08-06T03:52:28;14.40;99.90
12504;DHT22;6316;48.118;-1.690;2023-08-06T03:54:54;14.40;99.90
12504;DHT22;6316;48.118;-1.690;2023-08-06T03:57:19;14.40;99.90
12504;DHT22;6316;48.118;-1.690;2023-08-06T03:59:45;14.30;99.90
12504;DHT22;6316;48.118;-1.690;2023-08-06T04:02:11;14.30;99.90
12504;DHT22;6316;48.118;-1.690;2023-08-06T04:04:36;14.30;99.90
12504;DHT22;6316;48.118;-1.690;2023-08-06T04:07:03;14.30;99.90
12504;DHT22;6316;48.118;-1.690;2023-08-06T04:09:29;14.20;99.90
12504;DHT22;6316;48.118;-1.690;2023-08-06T04:11:55;14.20;99.90
12504;DHT22;6316;48.118;-1.690;2023-08-06T04:14:21;14.20;99.90
12504;DHT22;6316;48.118;-1.690;2023-08-06T04:16:47;14.20;99.90
12504;DHT22;6316;48.118;-1.690;2023-08-06T04:19:12;14.10;99.90
12504;DHT22;6316;48.118;-1.690;2023-08-06T04:21:38;14.10;99.90
12504;DHT22;6316;48.118;-1.690;2023-08-06T04:24:04;14.10;99.90
12504;DHT22;6316;48.118;-1.690;2023-08-06T04:26:29;14.10;99.90
12504;DHT22;6316;48.118;-1.690;2023-08-06T04:28:55;14.10;99.90
12504;DHT22;6316;48.118;-1.690;2023-08-06T04:31:21;14.10;99.90
12504;DHT22;6316;48.118;-1.690;2023-08-06T04:33:47;14.00;99.90
12504;DHT22;6316;48.118;-1.690;2023-08-06T04:36:13;14.00;99.90
12504;DHT22;6316;48.118;-1.690;2023-08-06T04:38:38;14.00;99.90
12504;DHT22;6316;48.118;-1.690;2023-08-06T04:41:06;14.00;99.90
12504;DHT22;6316;48.118;-1.690;2023-08-06T04:43:32;14.00;99.90
12504;DHT22;6316;48.118;-1.690;2023-08-06T04:45:58;14.00;99.90
12504;DHT22;6316;48.118;-1.690;2023-08-06T04:48:23;14.00;99.90
12504;DHT22;6316;48.118;-1.690;2023-08-06T04:50:50;14.00;99.90
12504;DHT22;6316;48.118;-1.690;2023-08-06T04:53:16;14.00;99.90
12504;DHT22;6316;48.118;-1.690;2023-08-06T04:55:42;14.00;99.90
12504;DHT22;6316;48.118;-1.690;2023-08-06T04:58:09;14.00;99.90
12504;DHT22;6316;48.118;-1.690;2023-08-06T05:00:35;14.00;99.90
12504;DHT22;6316;48.118;-1.690;2023-08-06T05:03:01;14.00;99.90
12504;DHT22;6316;48.118;-1.690;2023-08-06T05:05:27;14.00;99.90
12504;DHT22;6316;48.118;-1.690;2023-08-06T05:07:54;14.00;99.90
12504;DHT22;6316;48.118;-1.690;2023-08-06T05:10:21;14.00;99.90
12504;DHT22;6316;48.118;-1.690;2023-08-06T05:12:47;14.00;99.90
12504;DHT22;6316;48.118;-1.690;2023-08-06T05:15:12;14.10;99.90
12504;DHT22;6316;48.118;-1.690;2023-08-06T05:17:38;14.10;99.90
12504;DHT22;6316;48.118;-1.690;2023-08-06T05:20:04;14.10;99.90
12504;DHT22;6316;48.118;-1.690;2023-08-06T05:22:30;14.10;99.90
12504;DHT22;6316;48.118;-1.690;2023-08-06T05:24:55;14.20;99.90
12504;DHT22;6316;48.118;-1.690;2023-08-06T05:27:21;14.20;99.90
12504;DHT22;6316;48.118;-1.690;2023-08-06T05:29:48;14.20;99.90
12504;DHT22;6316;48.118;-1.690;2023-08-06T05:32:13;14.30;99.90
12504;DHT22;6316;48.118;-1.690;2023-08-06T05:34:41;14.30;99.90
12504;DHT22;6316;48.118;-1.690;2023-08-06T05:37:07;14.40;99.90
12504;DHT22;6316;48.118;-1.690;2023-08-06T05:39:32;14.40;99.90
12504;DHT22;6316;48.118;-1.690;2023-08-06T05:41:58;14.50;99.90
12504;DHT22;6316;48.118;-1.690;2023-08-06T05:44:24;14.60;99.90
12504;DHT22;6316;48.118;-1.690;2023-08-06T05:46:50;14.60;99.90
12504;DHT22;6316;48.118;-1.690;2023-08-06T05:49:15;14.60;99.90
12504;DHT22;6316;48.118;-1.690;2023-08-06T05:51:41;14.70;99.90
12504;DHT22;6316;48.118;-1.690;2023-08-06T05:54:07;14.70;99.90
12504;DHT22;6316;48.118;-1.690;2023-08-06T05:56:33;14.70;99.90
12504;DHT22;6316;48.118;-1.690;2023-08-06T05:58:58;14.80;99.90
12504;DHT22;6316;48.118;-1.690;2023-08-06T06:01:24;14.80;99.90
12504;DHT22;6316;48.118;-1.690;2023-08-06T06:03:50;14.90;99.90
12504;DHT22;6316;48.118;-1.690;2023-08-06T06:06:15;15.00;99.90
12504;DHT22;6316;48.118;-1.690;2023-08-06T06:08:42;15.10;99.90
12504;DHT22;6316;48.118;-1.690;2023-08-06T06:11:07;15.20;99.90
12504;DHT22;6316;48.118;-1.690;2023-08-06T06:13:33;15.30;99.90
12504;DHT22;6316;48.118;-1.690;2023-08-06T06:15:58;15.40;99.90
12504;DHT22;6316;48.118;-1.690;2023-08-06T06:18:24;15.50;99.90
12504;DHT22;6316;48.118;-1.690;2023-08-06T06:20:50;15.70;99.90
12504;DHT22;6316;48.118;-1.690;2023-08-06T06:23:15;15.80;99.90
12504;DHT22;6316;48.118;-1.690;2023-08-06T06:25:49;15.80;99.90
12504;DHT22;6316;48.118;-1.690;2023-08-06T06:28:17;15.90;99.90
12504;DHT22;6316;48.118;-1.690;2023-08-06T06:30:42;16.00;99.90
12504;DHT22;6316;48.118;-1.690;2023-08-06T06:33:08;16.10;99.90
12504;DHT22;6316;48.118;-1.690;2023-08-06T06:35:34;16.10;99.90
12504;DHT22;6316;48.118;-1.690;2023-08-06T06:37:59;16.20;99.90
12504;DHT22;6316;48.118;-1.690;2023-08-06T06:40:26;16.20;99.90
12504;DHT22;6316;48.118;-1.690;2023-08-06T06:42:51;16.30;99.90
12504;DHT22;6316;48.118;-1.690;2023-08-06T06:45:17;16.40;99.90
12504;DHT22;6316;48.118;-1.690;2023-08-06T06:47:43;16.50;99.90
12504;DHT22;6316;48.118;-1.690;2023-08-06T06:50:09;17.00;99.90
12504;DHT22;6316;48.118;-1.690;2023-08-06T06:52:34;17.80;99.90
12504;DHT22;6316;48.118;-1.690;2023-08-06T06:55:00;18.70;99.90
12504;DHT22;6316;48.118;-1.690;2023-08-06T06:57:26;19.50;99.90
12504;DHT22;6316;48.118;-1.690;2023-08-06T06:59:51;19.50;99.90
12504;DHT22;6316;48.118;-1.690;2023-08-06T07:02:17;19.30;99.90
12504;DHT22;6316;48.118;-1.690;2023-08-06T07:04:43;19.20;99.90
12504;DHT22;6316;48.118;-1.690;2023-08-06T07:07:08;19.70;99.90
12504;DHT22;6316;48.118;-1.690;2023-08-06T07:09:34;21.10;99.90
12504;DHT22;6316;48.118;-1.690;2023-08-06T07:12:00;22.40;99.90
12504;DHT22;6316;48.118;-1.690;2023-08-06T07:14:28;23.60;99.90
12504;DHT22;6316;48.118;-1.690;2023-08-06T07:16:53;23.60;99.90
12504;DHT22;6316;48.118;-1.690;2023-08-06T07:19:19;23.00;99.90
12504;DHT22;6316;48.118;-1.690;2023-08-06T07:21:45;23.20;99.90
12504;DHT22;6316;48.118;-1.690;2023-08-06T07:24:10;24.10;99.90
12504;DHT22;6316;48.118;-1.690;2023-08-06T07:26:37;25.20;99.90
12504;DHT22;6316;48.118;-1.690;2023-08-06T07:29:02;26.30;99.90
12504;DHT22;6316;48.118;-1.690;2023-08-06T07:31:28;27.30;99.90
12504;DHT22;6316;48.118;-1.690;2023-08-06T07:33:54;27.90;99.90
12504;DHT22;6316;48.118;-1.690;2023-08-06T07:36:20;28.30;99.90
12504;DHT22;6316;48.118;-1.690;2023-08-06T07:38:45;29.00;99.90
12504;DHT22;6316;48.118;-1.690;2023-08-06T07:41:11;29.90;99.90
12504;DHT22;6316;48.118;-1.690;2023-08-06T07:43:36;30.70;99.90
12504;DHT22;6316;48.118;-1.690;2023-08-06T07:46:02;31.30;99.90
12504;DHT22;6316;48.118;-1.690;2023-08-06T07:48:28;31.60;99.90
12504;DHT22;6316;48.118;-1.690;2023-08-06T07:50:54;30.90;99.90
12504;DHT22;6316;48.118;-1.690;2023-08-06T07:53:24;30.00;99.90
12504;DHT22;6316;48.118;-1.690;2023-08-06T07:55:53;28.80;99.90
12504;DHT22;6316;48.118;-1.690;2023-08-06T07:58:20;28.00;99.90
12504;DHT22;6316;48.118;-1.690;2023-08-06T08:00:46;27.40;99.90
12504;DHT22;6316;48.118;-1.690;2023-08-06T08:03:13;27.10;99.90
12504;DHT22;6316;48.118;-1.690;2023-08-06T08:05:39;26.70;99.90
12504;DHT22;6316;48.118;-1.690;2023-08-06T08:08:05;26.30;99.90
12504;DHT22;6316;48.118;-1.690;2023-08-06T08:10:31;25.80;99.90
12504;DHT22;6316;48.118;-1.690;2023-08-06T08:12:57;25.30;99.90
12504;DHT22;6316;48.118;-1.690;2023-08-06T08:15:24;24.80;99.90
12504;DHT22;6316;48.118;-1.690;2023-08-06T08:17:52;24.30;99.90
12504;DHT22;6316;48.118;-1.690;2023-08-06T08:20:17;23.80;99.90
12504;DHT22;6316;48.118;-1.690;2023-08-06T08:22:43;23.40;99.90
12504;DHT22;6316;48.118;-1.690;2023-08-06T08:25:09;23.10;99.90
12504;DHT22;6316;48.118;-1.690;2023-08-06T08:27:35;22.70;99.90
12504;DHT22;6316;48.118;-1.690;2023-08-06T08:30:00;22.50;99.90
12504;DHT22;6316;48.118;-1.690;2023-08-06T08:32:26;22.30;99.90
12504;DHT22;6316;48.118;-1.690;2023-08-06T08:34:52;22.20;99.90
12504;DHT22;6316;48.118;-1.690;2023-08-06T08:37:18;22.00;99.90
12504;DHT22;6316;48.118;-1.690;2023-08-06T08:39:44;21.90;99.90
12504;DHT22;6316;48.118;-1.690;2023-08-06T08:42:10;21.90;99.90
12504;DHT22;6316;48.118;-1.690;2023-08-06T08:44:36;22.10;99.90
12504;DHT22;6316;48.118;-1.690;2023-08-06T08:47:09;23.00;99.90
12504;DHT22;6316;48.118;-1.690;2023-08-06T08:49:36;24.20;99.90
12504;DHT22;6316;48.118;-1.690;2023-08-06T08:52:03;25.30;99.90
12504;DHT22;6316;48.118;-1.690;2023-08-06T08:54:34;25.80;99.90
12504;DHT22;6316;48.118;-1.690;2023-08-06T08:57:00;26.20;99.90
12504;DHT22;6316;48.118;-1.690;2023-08-06T08:59:27;27.00;99.90
12504;DHT22;6316;48.118;-1.690;2023-08-06T09:01:53;27.20;99.90
12504;DHT22;6316;48.118;-1.690;2023-08-06T09:04:20;27.00;99.90
12504;DHT22;6316;48.118;-1.690;2023-08-06T09:06:50;27.30;99.90
12504;DHT22;6316;48.118;-1.690;2023-08-06T09:09:20;27.70;99.90
12504;DHT22;6316;48.118;-1.690;2023-08-06T09:11:48;28.10;99.90
12504;DHT22;6316;48.118;-1.690;2023-08-06T09:14:14;28.20;99.90
12504;DHT22;6316;48.118;-1.690;2023-08-06T09:16:40;28.10;99.90
12504;DHT22;6316;48.118;-1.690;2023-08-06T09:19:10;27.80;99.90
12504;DHT22;6316;48.118;-1.690;2023-08-06T09:21:40;27.60;99.90
12504;DHT22;6316;48.118;-1.690;2023-08-06T09:24:12;27.40;99.90
12504;DHT22;6316;48.118;-1.690;2023-08-06T09:26:44;27.00;99.90
12504;DHT22;6316;48.118;-1.690;2023-08-06T09:29:11;26.40;99.90
12504;DHT22;6316;48.118;-1.690;2023-08-06T09:31:44;25.80;99.90
12504;DHT22;6316;48.118;-1.690;2023-08-06T09:34:18;25.40;99.90
12504;DHT22;6316;48.118;-1.690;2023-08-06T09:36:51;25.00;99.90
12504;DHT22;6316;48.118;-1.690;2023-08-06T09:39:18;24.70;99.90
12504;DHT22;6316;48.118;-1.690;2023-08-06T09:41:45;24.40;99.90
12504;DHT22;6316;48.118;-1.690;2023-08-06T09:44:24;24.20;99.90
12504;DHT22;6316;48.118;-1.690;2023-08-06T09:46:52;24.10;99.90
12504;DHT22;6316;48.118;-1.690;2023-08-06T09:49:19;23.90;99.90
12504;DHT22;6316;48.118;-1.690;2023-08-06T09:51:46;23.60;99.90
12504;DHT22;6316;48.118;-1.690;2023-08-06T09:54:16;23.50;99.90
12504;DHT22;6316;48.118;-1.690;2023-08-06T09:56:42;23.30;99.90
12504;DHT22;6316;48.118;-1.690;2023-08-06T09:59:09;23.20;99.90
12504;DHT22;6316;48.118;-1.690;2023-08-06T10:01:36;23.10;99.90
12504;DHT22;6316;48.118;-1.690;2023-08-06T10:04:04;23.00;99.90
12504;DHT22;6316;48.118;-1.690;2023-08-06T10:06:35;22.90;99.90
12504;DHT22;6316;48.118;-1.690;2023-08-06T10:09:04;22.80;99.90
12504;DHT22;6316;48.118;-1.690;2023-08-06T10:11:30;22.80;99.90
12504;DHT22;6316;48.118;-1.690;2023-08-06T10:14:16;22.80;99.90
12504;DHT22;6316;48.118;-1.690;2023-08-06T10:16:44;22.80;99.90
12504;DHT22;6316;48.118;-1.690;2023-08-06T10:19:11;22.80;99.90
12504;DHT22;6316;48.118;-1.690;2023-08-06T10:21:40;22.90;99.90
12504;DHT22;6316;48.118;-1.690;2023-08-06T10:24:08;22.90;99.90
12504;DHT22;6316;48.118;-1.690;2023-08-06T10:26:37;22.90;99.90
12504;DHT22;6316;48.118;-1.690;2023-08-06T10:29:35;22.90;99.90
12504;DHT22;6316;48.118;-1.690;2023-08-06T10:32:02;22.90;99.90
12504;DHT22;6316;48.118;-1.690;2023-08-06T10:37:22;23.10;99.90
12504;DHT22;6316;48.118;-1.690;2023-08-06T10:39:51;23.00;99.90
12504;DHT22;6316;48.118;-1.690;2023-08-06T10:42:30;23.10;99.90
12504;DHT22;6316;48.118;-1.690;2023-08-06T10:45:12;23.00;99.90
12504;DHT22;6316;48.118;-1.690;2023-08-06T10:47:42;22.90;99.90
12504;DHT22;6316;48.118;-1.690;2023-08-06T10:50:11;22.80;99.90
12504;DHT22;6316;48.118;-1.690;2023-08-06T10:52:37;22.70;99.90
12504;DHT22;6316;48.118;-1.690;2023-08-06T10:55:03;22.60;99.90
12504;DHT22;6316;48.118;-1.690;2023-08-06T10:57:29;22.70;99.90
12504;DHT22;6316;48.118;-1.690;2023-08-06T10:59:55;22.90;99.90
12504;DHT22;6316;48.118;-1.690;2023-08-06T11:02:20;23.00;99.90
12504;DHT22;6316;48.118;-1.690;2023-08-06T11:04:47;23.10;99.90
12504;DHT22;6316;48.118;-1.690;2023-08-06T11:07:13;23.00;99.90
12504;DHT22;6316;48.118;-1.690;2023-08-06T11:09:39;22.80;99.90
12504;DHT22;6316;48.118;-1.690;2023-08-06T11:12:11;22.80;99.90
12504;DHT22;6316;48.118;-1.690;2023-08-06T11:14:37;22.70;99.90
12504;DHT22;6316;48.118;-1.690;2023-08-06T11:17:05;22.70;99.90
12504;DHT22;6316;48.118;-1.690;2023-08-06T11:19:31;22.70;99.90
12504;DHT22;6316;48.118;-1.690;2023-08-06T11:21:56;22.90;99.90
12504;DHT22;6316;48.118;-1.690;2023-08-06T11:24:24;23.00;99.90
12504;DHT22;6316;48.118;-1.690;2023-08-06T11:26:50;23.20;99.90
12504;DHT22;6316;48.118;-1.690;2023-08-06T11:29:16;23.40;99.90
12504;DHT22;6316;48.118;-1.690;2023-08-06T11:31:41;23.40;99.90
12504;DHT22;6316;48.118;-1.690;2023-08-06T11:34:07;23.30;99.90
12504;DHT22;6316;48.118;-1.690;2023-08-06T11:36:40;23.20;99.90
12504;DHT22;6316;48.118;-1.690;2023-08-06T11:39:06;23.10;99.90
12504;DHT22;6316;48.118;-1.690;2023-08-06T11:41:32;23.10;99.90
12504;DHT22;6316;48.118;-1.690;2023-08-06T11:43:59;23.00;99.90
12504;DHT22;6316;48.118;-1.690;2023-08-06T11:46:25;22.90;99.90
12504;DHT22;6316;48.118;-1.690;2023-08-06T11:51:17;22.80;99.90
12504;DHT22;6316;48.118;-1.690;2023-08-06T11:53:48;22.80;99.90
12504;DHT22;6316;48.118;-1.690;2023-08-06T11:56:15;22.80;99.90
12504;DHT22;6316;48.118;-1.690;2023-08-06T11:58:41;22.80;99.90
12504;DHT22;6316;48.118;-1.690;2023-08-06T12:01:07;22.80;99.90
12504;DHT22;6316;48.118;-1.690;2023-08-06T12:03:38;22.70;99.90
12504;DHT22;6316;48.118;-1.690;2023-08-06T12:06:04;22.70;99.90
12504;DHT22;6316;48.118;-1.690;2023-08-06T12:08:29;22.80;99.90
12504;DHT22;6316;48.118;-1.690;2023-08-06T12:10:55;22.80;99.90
12504;DHT22;6316;48.118;-1.690;2023-08-06T12:13:20;22.90;99.90
12504;DHT22;6316;48.118;-1.690;2023-08-06T12:15:46;22.90;99.90
12504;DHT22;6316;48.118;-1.690;2023-08-06T12:18:12;23.00;99.90
12504;DHT22;6316;48.118;-1.690;2023-08-06T12:20:37;23.00;99.90
12504;DHT22;6316;48.118;-1.690;2023-08-06T12:23:04;23.10;99.90
12504;DHT22;6316;48.118;-1.690;2023-08-06T12:25:29;23.00;99.90
12504;DHT22;6316;48.118;-1.690;2023-08-06T12:27:55;22.90;99.90
12504;DHT22;6316;48.118;-1.690;2023-08-06T12:30:21;23.00;99.90
12504;DHT22;6316;48.118;-1.690;2023-08-06T12:32:46;23.10;99.90
12504;DHT22;6316;48.118;-1.690;2023-08-06T12:35:12;23.10;99.90
12504;DHT22;6316;48.118;-1.690;2023-08-06T12:37:39;23.10;99.90
12504;DHT22;6316;48.118;-1.690;2023-08-06T12:40:06;23.00;99.90
12504;DHT22;6316;48.118;-1.690;2023-08-06T12:42:32;23.00;99.90
12504;DHT22;6316;48.118;-1.690;2023-08-06T12:44:58;22.90;99.90
12504;DHT22;6316;48.118;-1.690;2023-08-06T12:47:23;22.90;99.90
12504;DHT22;6316;48.118;-1.690;2023-08-06T12:49:49;22.90;99.90
12504;DHT22;6316;48.118;-1.690;2023-08-06T12:52:15;22.90;99.90
12504;DHT22;6316;48.118;-1.690;2023-08-06T12:54:42;22.90;99.90
12504;DHT22;6316;48.118;-1.690;2023-08-06T12:57:07;22.80;99.90
12504;DHT22;6316;48.118;-1.690;2023-08-06T12:59:33;22.70;99.90
12504;DHT22;6316;48.118;-1.690;2023-08-06T13:02:00;22.60;99.90
12504;DHT22;6316;48.118;-1.690;2023-08-06T13:04:25;22.50;99.90
12504;DHT22;6316;48.118;-1.690;2023-08-06T13:06:51;22.50;99.90
12504;DHT22;6316;48.118;-1.690;2023-08-06T13:09:17;22.60;99.90
12504;DHT22;6316;48.118;-1.690;2023-08-06T13:11:42;22.60;99.90
12504;DHT22;6316;48.118;-1.690;2023-08-06T13:14:12;22.70;99.90
12504;DHT22;6316;48.118;-1.690;2023-08-06T13:16:40;22.80;99.90
12504;DHT22;6316;48.118;-1.690;2023-08-06T13:19:07;22.90;99.90
12504;DHT22;6316;48.118;-1.690;2023-08-06T13:24:03;23.00;99.90
12504;DHT22;6316;48.118;-1.690;2023-08-06T13:26:30;22.90;99.90
12504;DHT22;6316;48.118;-1.690;2023-08-06T13:29:00;22.80;99.90
12504;DHT22;6316;48.118;-1.690;2023-08-06T13:31:27;22.80;99.90
12504;DHT22;6316;48.118;-1.690;2023-08-06T13:33:54;22.80;99.90
12504;DHT22;6316;48.118;-1.690;2023-08-06T13:36:21;22.90;99.90
12504;DHT22;6316;48.118;-1.690;2023-08-06T13:38:48;23.00;99.90
12504;DHT22;6316;48.118;-1.690;2023-08-06T13:41:13;23.00;99.90
12504;DHT22;6316;48.118;-1.690;2023-08-06T13:43:39;23.00;99.90
12504;DHT22;6316;48.118;-1.690;2023-08-06T13:46:05;23.00;99.90
12504;DHT22;6316;48.118;-1.690;2023-08-06T13:48:30;22.90;99.90
12504;DHT22;6316;48.118;-1.690;2023-08-06T13:50:56;22.90;99.90
12504;DHT22;6316;48.118;-1.690;2023-08-06T13:53:22;22.90;99.90
12504;DHT22;6316;48.118;-1.690;2023-08-06T13:55:48;22.90;99.90
12504;DHT22;6316;48.118;-1.690;2023-08-06T13:58:13;22.90;99.90
12504;DHT22;6316;48.118;-1.690;2023-08-06T14:00:39;22.80;99.90
12504;DHT22;6316;48.118;-1.690;2023-08-06T14:03:04;22.80;99.90
12504;DHT22;6316;48.118;-1.690;2023-08-06T14:05:30;22.70;99.90
12504;DHT22;6316;48.118;-1.690;2023-08-06T14:07:56;22.70;99.90
12504;DHT22;6316;48.118;-1.690;2023-08-06T14:10:21;22.80;99.90
12504;DHT22;6316;48.118;-1.690;2023-08-06T14:12:47;22.80;99.90
12504;DHT22;6316;48.118;-1.690;2023-08-06T14:15:13;22.70;99.90
12504;DHT22;6316;48.118;-1.690;2023-08-06T14:17:38;22.60;99.90
12504;DHT22;6316;48.118;-1.690;2023-08-06T14:20:05;22.50;99.90
12504;DHT22;6316;48.118;-1.690;2023-08-06T14:22:33;22.50;99.90
12504;DHT22;6316;48.118;-1.690;2023-08-06T14:24:59;22.60;99.90
12504;DHT22;6316;48.118;-1.690;2023-08-06T14:27:25;22.60;99.90
12504;DHT22;6316;48.118;-1.690;2023-08-06T14:29:50;22.60;99.90
12504;DHT22;6316;48.118;-1.690;2023-08-06T14:32:16;22.50;99.90
12504;DHT22;6316;48.118;-1.690;2023-08-06T14:34:43;22.40;99.90
12504;DHT22;6316;48.118;-1.690;2023-08-06T14:37:10;22.40;99.90
12504;DHT22;6316;48.118;-1.690;2023-08-06T14:39:35;22.40;99.90
12504;DHT22;6316;48.118;-1.690;2023-08-06T14:42:01;22.40;99.90
12504;DHT22;6316;48.118;-1.690;2023-08-06T14:44:27;22.30;99.90
12504;DHT22;6316;48.118;-1.690;2023-08-06T14:46:53;22.30;99.90
12504;DHT22;6316;48.118;-1.690;2023-08-06T14:49:18;22.30;99.90
12504;DHT22;6316;48.118;-1.690;2023-08-06T14:51:44;22.30;99.90
12504;DHT22;6316;48.118;-1.690;2023-08-06T14:54:10;22.30;99.90
12504;DHT22;6316;48.118;-1.690;2023-08-06T14:56:35;22.40;99.90
12504;DHT22;6316;48.118;-1.690;2023-08-06T14:59:01;22.40;99.90
12504;DHT22;6316;48.118;-1.690;2023-08-06T15:01:27;22.50;99.90
12504;DHT22;6316;48.118;-1.690;2023-08-06T15:03:52;22.50;99.90
12504;DHT22;6316;48.118;-1.690;2023-08-06T15:06:18;22.50;99.90
12504;DHT22;6316;48.118;-1.690;2023-08-06T15:08:44;22.50;99.90
12504;DHT22;6316;48.118;-1.690;2023-08-06T15:11:13;22.40;99.90
12504;DHT22;6316;48.118;-1.690;2023-08-06T15:13:39;22.30;99.90
12504;DHT22;6316;48.118;-1.690;2023-08-06T15:16:06;22.30;99.90
12504;DHT22;6316;48.118;-1.690;2023-08-06T15:18:31;22.30;99.90
12504;DHT22;6316;48.118;-1.690;2023-08-06T15:20:57;22.40;99.90
12504;DHT22;6316;48.118;-1.690;2023-08-06T15:23:23;22.30;99.90
12504;DHT22;6316;48.118;-1.690;2023-08-06T15:25:49;22.30;99.90
12504;DHT22;6316;48.118;-1.690;2023-08-06T15:28:15;22.40;99.90
12504;DHT22;6316;48.118;-1.690;2023-08-06T15:30:51;22.40;99.90
12504;DHT22;6316;48.118;-1.690;2023-08-06T15:33:20;22.40;99.90
12504;DHT22;6316;48.118;-1.690;2023-08-06T15:35:46;22.40;99.90
12504;DHT22;6316;48.118;-1.690;2023-08-06T15:38:11;22.30;99.90